sensor_id;sensor_type;location;lat;lon;timestamp;P1;durP1;ratioP1;P2;durP2;ratioP2
62673;SDS011;62269;47.594;17.638;2022-10-28T00:00:39;261.83;;;40.22;;
62673;SDS011;62269;47.594;17.638;2022-10-28T00:01:26;116.35;;;31.62;;
62673;SDS011;62269;47.594;17.638;2022-10-28T00:02:13;357.77;;;50.42;;
62673;SDS011;62269;47.594;17.638;2022-10-28T00:03:00;65.43;;;29.95;;
62673;SDS011;62269;47.594;17.638;2022-10-28T00:03:51;90.85;;;30.12;;
62673;SDS011;62269;47.594;17.638;2022-10-28T00:04:39;238.00;;;38.20;;
62673;SDS011;62269;47.594;17.638;2022-10-28T00:05:26;92.70;;;28.83;;
62673;SDS011;62269;47.594;17.638;2022-10-28T00:06:16;166.30;;;34.45;;
62673;SDS011;62269;47.594;17.638;2022-10-28T00:07:51;62.83;;;26.87;;
62673;SDS011;62269;47.594;17.638;2022-10-28T00:08:38;129.12;;;30.65;;
62673;SDS011;62269;47.594;17.638;2022-10-28T00:09:26;280.62;;;43.55;;
62673;SDS011;62269;47.594;17.638;2022-10-28T00:10:12;75.57;;;29.02;;
62673;SDS011;62269;47.594;17.638;2022-10-28T00:11:00;72.43;;;29.02;;
62673;SDS011;62269;47.594;17.638;2022-10-28T00:11:51;74.20;;;31.23;;
62673;SDS011;62269;47.594;17.638;2022-10-28T00:12:38;107.63;;;32.67;;
62673;SDS011;62269;47.594;17.638;2022-10-28T00:13:24;93.45;;;31.58;;
62673;SDS011;62269;47.594;17.638;2022-10-28T00:14:11;173.13;;;35.33;;
62673;SDS011;62269;47.594;17.638;2022-10-28T00:14:58;89.28;;;30.37;;
62673;SDS011;62269;47.594;17.638;2022-10-28T00:15:45;65.97;;;30.10;;
62673;SDS011;62269;47.594;17.638;2022-10-28T00:16:33;141.23;;;35.78;;
62673;SDS011;62269;47.594;17.638;2022-10-28T00:17:20;168.23;;;35.60;;
62673;SDS011;62269;47.594;17.638;2022-10-28T00:18:10;208.57;;;38.65;;
62673;SDS011;62269;47.594;17.638;2022-10-28T00:18:57;137.82;;;34.05;;
62673;SDS011;62269;47.594;17.638;2022-10-28T00:19:45;89.65;;;30.10;;
62673;SDS011;62269;47.594;17.638;2022-10-28T00:20:32;130.68;;;33.50;;
62673;SDS011;62269;47.594;17.638;2022-10-28T00:21:24;166.98;;;34.83;;
62673;SDS011;62269;47.594;17.638;2022-10-28T00:22:13;60.53;;;28.08;;
62673;SDS011;62269;47.594;17.638;2022-10-28T00:22:59;68.90;;;28.92;;
62673;SDS011;62269;47.594;17.638;2022-10-28T00:23:46;101.45;;;33.08;;
62673;SDS011;62269;47.594;17.638;2022-10-28T00:24:33;62.08;;;28.83;;
62673;SDS011;62269;47.594;17.638;2022-10-28T00:25:20;72.10;;;30.95;;
62673;SDS011;62269;47.594;17.638;2022-10-28T00:26:11;57.45;;;28.73;;
62673;SDS011;62269;47.594;17.638;2022-10-28T00:26:59;49.47;;;29.40;;
62673;SDS011;62269;47.594;17.638;2022-10-28T00:27:46;64.70;;;28.17;;
62673;SDS011;62269;47.594;17.638;2022-10-28T00:28:33;94.90;;;29.87;;
62673;SDS011;62269;47.594;17.638;2022-10-28T00:29:20;150.52;;;32.83;;
62673;SDS011;62269;47.594;17.638;2022-10-28T00:30:07;76.62;;;28.12;;
62673;SDS011;62269;47.594;17.638;2022-10-28T00:30:54;138.62;;;31.48;;
62673;SDS011;62269;47.594;17.638;2022-10-28T00:31:41;98.70;;;29.83;;
62673;SDS011;62269;47.594;17.638;2022-10-28T00:32:28;71.87;;;28.20;;
62673;SDS011;62269;47.594;17.638;2022-10-28T00:33:16;83.03;;;30.30;;
62673;SDS011;62269;47.594;17.638;2022-10-28T00:34:04;64.90;;;26.87;;
62673;SDS011;62269;47.594;17.638;2022-10-28T00:34:52;47.65;;;26.42;;
62673;SDS011;62269;47.594;17.638;2022-10-28T00:35:39;50.70;;;28.25;;
62673;SDS011;62269;47.594;17.638;2022-10-28T00:36:27;41.67;;;27.37;;
62673;SDS011;62269;47.594;17.638;2022-10-28T00:37:17;70.47;;;29.77;;
62673;SDS011;62269;47.594;17.638;2022-10-28T00:38:03;54.22;;;27.35;;
62673;SDS011;62269;47.594;17.638;2022-10-28T00:38:51;58.03;;;29.10;;
62673;SDS011;62269;47.594;17.638;2022-10-28T00:39:38;59.28;;;29.95;;
62673;SDS011;62269;47.594;17.638;2022-10-28T00:40:25;35.75;;;27.30;;
62673;SDS011;62269;47.594;17.638;2022-10-28T00:41:13;35.80;;;28.73;;
62673;SDS011;62269;47.594;17.638;2022-10-28T00:42:02;87.88;;;31.45;;
62673;SDS011;62269;47.594;17.638;2022-10-28T00:42:49;57.70;;;27.52;;
62673;SDS011;62269;47.594;17.638;2022-10-28T00:43:41;52.13;;;29.08;;
62673;SDS011;62269;47.594;17.638;2022-10-28T00:44:52;50.78;;;26.75;;
62673;SDS011;62269;47.594;17.638;2022-10-28T00:45:46;38.28;;;27.20;;
62673;SDS011;62269;47.594;17.638;2022-10-28T00:46:35;91.18;;;32.55;;
62673;SDS011;62269;47.594;17.638;2022-10-28T00:48:19;75.78;;;31.10;;
62673;SDS011;62269;47.594;17.638;2022-10-28T00:49:27;53.67;;;28.27;;
62673;SDS011;62269;47.594;17.638;2022-10-28T00:51:06;48.15;;;29.12;;
62673;SDS011;62269;47.594;17.638;2022-10-28T00:51:56;104.35;;;32.70;;
62673;SDS011;62269;47.594;17.638;2022-10-28T00:52:49;152.40;;;36.67;;
62673;SDS011;62269;47.594;17.638;2022-10-28T00:53:38;100.18;;;32.15;;
62673;SDS011;62269;47.594;17.638;2022-10-28T00:54:27;58.60;;;30.12;;
62673;SDS011;62269;47.594;17.638;2022-10-28T00:55:14;107.10;;;34.30;;
62673;SDS011;62269;47.594;17.638;2022-10-28T00:56:01;48.87;;;29.87;;
62673;SDS011;62269;47.594;17.638;2022-10-28T00:56:50;126.25;;;34.53;;
62673;SDS011;62269;47.594;17.638;2022-10-28T00:57:38;149.05;;;36.33;;
62673;SDS011;62269;47.594;17.638;2022-10-28T00:58:27;72.30;;;31.05;;
62673;SDS011;62269;47.594;17.638;2022-10-28T00:59:16;49.33;;;29.08;;
62673;SDS011;62269;47.594;17.638;2022-10-28T01:00:05;75.53;;;31.48;;
62673;SDS011;62269;47.594;17.638;2022-10-28T01:00:53;80.00;;;29.10;;
62673;SDS011;62269;47.594;17.638;2022-10-28T01:01:40;170.70;;;38.47;;
62673;SDS011;62269;47.594;17.638;2022-10-28T01:02:27;63.90;;;30.23;;
62673;SDS011;62269;47.594;17.638;2022-10-28T01:03:14;71.72;;;29.92;;
62673;SDS011;62269;47.594;17.638;2022-10-28T01:04:01;75.22;;;31.83;;
62673;SDS011;62269;47.594;17.638;2022-10-28T01:04:48;74.60;;;29.35;;
62673;SDS011;62269;47.594;17.638;2022-10-28T01:05:36;94.40;;;33.35;;
62673;SDS011;62269;47.594;17.638;2022-10-28T01:06:25;89.62;;;32.00;;
62673;SDS011;62269;47.594;17.638;2022-10-28T01:07:14;48.85;;;30.27;;
62673;SDS011;62269;47.594;17.638;2022-10-28T01:08:02;390.52;;;52.47;;
62673;SDS011;62269;47.594;17.638;2022-10-28T01:08:50;123.00;;;34.65;;
62673;SDS011;62269;47.594;17.638;2022-10-28T01:09:44;68.43;;;29.85;;
62673;SDS011;62269;47.594;17.638;2022-10-28T01:12:59;52.33;;;28.75;;
62673;SDS011;62269;47.594;17.638;2022-10-28T01:16:21;45.85;;;28.17;;
62673;SDS011;62269;47.594;17.638;2022-10-28T01:18:31;56.78;;;27.15;;
62673;SDS011;62269;47.594;17.638;2022-10-28T01:20:51;83.40;;;30.30;;
62673;SDS011;62269;47.594;17.638;2022-10-28T01:22:20;38.20;;;26.85;;
62673;SDS011;62269;47.594;17.638;2022-10-28T01:25:25;69.18;;;28.17;;
62673;SDS011;62269;47.594;17.638;2022-10-28T01:32:44;100.72;;;30.98;;
62673;SDS011;62269;47.594;17.638;2022-10-28T01:33:17;116.78;;;30.55;;
62673;SDS011;62269;47.594;17.638;2022-10-28T01:35:56;74.65;;;28.40;;
62673;SDS011;62269;47.594;17.638;2022-10-28T01:39:54;42.60;;;25.40;;
62673;SDS011;62269;47.594;17.638;2022-10-28T01:42:55;35.40;;;24.20;;
62673;SDS011;62269;47.594;17.638;2022-10-28T01:45:23;36.33;;;24.10;;
62673;SDS011;62269;47.594;17.638;2022-10-28T01:46:28;33.60;;;23.17;;
62673;SDS011;62269;47.594;17.638;2022-10-28T01:48:38;58.58;;;25.75;;
62673;SDS011;62269;47.594;17.638;2022-10-28T01:50:26;92.03;;;29.20;;
62673;SDS011;62269;47.594;17.638;2022-10-28T01:51:45;29.65;;;23.45;;
62673;SDS011;62269;47.594;17.638;2022-10-28T01:52:33;34.13;;;23.87;;
62673;SDS011;62269;47.594;17.638;2022-10-28T01:53:22;30.60;;;23.85;;
62673;SDS011;62269;47.594;17.638;2022-10-28T01:54:16;28.25;;;25.30;;
62673;SDS011;62269;47.594;17.638;2022-10-28T01:55:09;39.80;;;26.77;;
62673;SDS011;62269;47.594;17.638;2022-10-28T01:56:02;37.47;;;25.88;;
62673;SDS011;62269;47.594;17.638;2022-10-28T01:56:53;34.97;;;24.00;;
62673;SDS011;62269;47.594;17.638;2022-10-28T01:57:41;40.50;;;25.33;;
62673;SDS011;62269;47.594;17.638;2022-10-28T01:58:29;46.95;;;26.80;;
62673;SDS011;62269;47.594;17.638;2022-10-28T01:59:19;38.10;;;25.30;;
62673;SDS011;62269;47.594;17.638;2022-10-28T02:00:08;47.28;;;25.02;;
62673;SDS011;62269;47.594;17.638;2022-10-28T02:00:56;61.33;;;26.73;;
62673;SDS011;62269;47.594;17.638;2022-10-28T02:01:45;43.83;;;26.08;;
62673;SDS011;62269;47.594;17.638;2022-10-28T02:02:32;46.22;;;27.08;;
62673;SDS011;62269;47.594;17.638;2022-10-28T02:03:22;43.23;;;26.50;;
62673;SDS011;62269;47.594;17.638;2022-10-28T02:04:09;43.55;;;25.12;;
62673;SDS011;62269;47.594;17.638;2022-10-28T02:05:03;47.08;;;26.77;;
62673;SDS011;62269;47.594;17.638;2022-10-28T02:06:18;45.80;;;24.77;;
62673;SDS011;62269;47.594;17.638;2022-10-28T02:07:06;50.85;;;25.83;;
62673;SDS011;62269;47.594;17.638;2022-10-28T02:07:53;28.23;;;24.92;;
62673;SDS011;62269;47.594;17.638;2022-10-28T02:08:56;35.53;;;24.90;;
62673;SDS011;62269;47.594;17.638;2022-10-28T02:10:10;36.78;;;25.52;;
62673;SDS011;62269;47.594;17.638;2022-10-28T02:12:27;28.62;;;24.42;;
62673;SDS011;62269;47.594;17.638;2022-10-28T02:13:15;27.42;;;23.50;;
62673;SDS011;62269;47.594;17.638;2022-10-28T02:14:16;29.90;;;24.42;;
62673;SDS011;62269;47.594;17.638;2022-10-28T02:16:23;27.73;;;24.55;;
62673;SDS011;62269;47.594;17.638;2022-10-28T02:18:24;36.40;;;25.12;;
62673;SDS011;62269;47.594;17.638;2022-10-28T02:20:36;41.97;;;25.55;;
62673;SDS011;62269;47.594;17.638;2022-10-28T02:21:55;44.38;;;26.40;;
62673;SDS011;62269;47.594;17.638;2022-10-28T02:25:42;30.00;;;24.60;;
62673;SDS011;62269;47.594;17.638;2022-10-28T02:26:35;31.23;;;25.35;;
62673;SDS011;62269;47.594;17.638;2022-10-28T02:28:41;32.22;;;24.92;;
62673;SDS011;62269;47.594;17.638;2022-10-28T02:29:45;26.33;;;23.48;;
62673;SDS011;62269;47.594;17.638;2022-10-28T02:30:43;26.90;;;24.23;;
62673;SDS011;62269;47.594;17.638;2022-10-28T02:31:34;25.12;;;22.40;;
62673;SDS011;62269;47.594;17.638;2022-10-28T02:32:26;26.48;;;23.67;;
62673;SDS011;62269;47.594;17.638;2022-10-28T02:33:16;25.27;;;22.67;;
62673;SDS011;62269;47.594;17.638;2022-10-28T02:34:08;24.90;;;22.20;;
62673;SDS011;62269;47.594;17.638;2022-10-28T02:34:59;28.67;;;23.38;;
62673;SDS011;62269;47.594;17.638;2022-10-28T02:36:41;27.52;;;24.33;;
62673;SDS011;62269;47.594;17.638;2022-10-28T02:37:31;40.33;;;25.12;;
62673;SDS011;62269;47.594;17.638;2022-10-28T02:38:24;25.45;;;22.75;;
62673;SDS011;62269;47.594;17.638;2022-10-28T02:39:13;27.25;;;23.55;;
62673;SDS011;62269;47.594;17.638;2022-10-28T02:40:03;26.42;;;22.98;;
62673;SDS011;62269;47.594;17.638;2022-10-28T02:40:54;26.92;;;23.08;;
62673;SDS011;62269;47.594;17.638;2022-10-28T02:41:48;26.42;;;22.50;;
62673;SDS011;62269;47.594;17.638;2022-10-28T02:42:43;26.67;;;23.83;;
62673;SDS011;62269;47.594;17.638;2022-10-28T02:43:32;52.70;;;25.02;;
62673;SDS011;62269;47.594;17.638;2022-10-28T02:44:29;24.95;;;22.30;;
62673;SDS011;62269;47.594;17.638;2022-10-28T02:45:19;26.23;;;23.42;;
62673;SDS011;62269;47.594;17.638;2022-10-28T02:46:07;24.27;;;21.67;;
62673;SDS011;62269;47.594;17.638;2022-10-28T02:46:55;24.37;;;21.83;;
62673;SDS011;62269;47.594;17.638;2022-10-28T02:47:55;24.08;;;21.58;;
62673;SDS011;62269;47.594;17.638;2022-10-28T02:48:46;36.97;;;21.75;;
62673;SDS011;62269;47.594;17.638;2022-10-28T02:49:35;30.48;;;22.52;;
62673;SDS011;62269;47.594;17.638;2022-10-28T02:50:24;27.85;;;21.98;;
62673;SDS011;62269;47.594;17.638;2022-10-28T02:51:19;33.45;;;21.95;;
62673;SDS011;62269;47.594;17.638;2022-10-28T02:52:07;23.83;;;21.33;;
62673;SDS011;62269;47.594;17.638;2022-10-28T02:52:55;25.00;;;21.37;;
62673;SDS011;62269;47.594;17.638;2022-10-28T02:53:49;25.37;;;22.40;;
62673;SDS011;62269;47.594;17.638;2022-10-28T02:54:59;35.05;;;23.10;;
62673;SDS011;62269;47.594;17.638;2022-10-28T02:55:48;29.95;;;22.85;;
62673;SDS011;62269;47.594;17.638;2022-10-28T02:56:38;23.38;;;21.00;;
62673;SDS011;62269;47.594;17.638;2022-10-28T02:57:31;25.00;;;21.40;;
62673;SDS011;62269;47.594;17.638;2022-10-28T02:58:20;23.85;;;20.62;;
62673;SDS011;62269;47.594;17.638;2022-10-28T02:59:08;22.83;;;20.55;;
62673;SDS011;62269;47.594;17.638;2022-10-28T03:00:01;23.95;;;20.45;;
62673;SDS011;62269;47.594;17.638;2022-10-28T03:00:54;23.50;;;21.02;;
62673;SDS011;62269;47.594;17.638;2022-10-28T03:01:41;23.50;;;21.00;;
62673;SDS011;62269;47.594;17.638;2022-10-28T03:02:28;22.83;;;20.52;;
62673;SDS011;62269;47.594;17.638;2022-10-28T03:03:15;22.73;;;20.35;;
62673;SDS011;62269;47.594;17.638;2022-10-28T03:04:02;21.83;;;19.48;;
62673;SDS011;62269;47.594;17.638;2022-10-28T03:04:49;22.40;;;20.10;;
62673;SDS011;62269;47.594;17.638;2022-10-28T03:05:36;23.38;;;21.00;;
62673;SDS011;62269;47.594;17.638;2022-10-28T03:06:23;23.12;;;20.88;;
62673;SDS011;62269;47.594;17.638;2022-10-28T03:07:15;23.00;;;20.70;;
62673;SDS011;62269;47.594;17.638;2022-10-28T03:08:02;21.52;;;19.42;;
62673;SDS011;62269;47.594;17.638;2022-10-28T03:08:49;25.52;;;21.62;;
62673;SDS011;62269;47.594;17.638;2022-10-28T03:09:36;24.25;;;21.77;;
62673;SDS011;62269;47.594;17.638;2022-10-28T03:10:23;23.45;;;20.92;;
62673;SDS011;62269;47.594;17.638;2022-10-28T03:11:09;21.92;;;19.75;;
62673;SDS011;62269;47.594;17.638;2022-10-28T03:11:56;22.83;;;20.50;;
62673;SDS011;62269;47.594;17.638;2022-10-28T03:12:43;22.45;;;20.20;;
62673;SDS011;62269;47.594;17.638;2022-10-28T03:13:30;22.60;;;20.30;;
62673;SDS011;62269;47.594;17.638;2022-10-28T03:14:17;22.25;;;19.98;;
62673;SDS011;62269;47.594;17.638;2022-10-28T03:15:03;22.98;;;20.58;;
62673;SDS011;62269;47.594;17.638;2022-10-28T03:15:51;23.48;;;21.17;;
62673;SDS011;62269;47.594;17.638;2022-10-28T03:16:37;23.27;;;20.70;;
62673;SDS011;62269;47.594;17.638;2022-10-28T03:17:24;24.25;;;21.75;;
62673;SDS011;62269;47.594;17.638;2022-10-28T03:18:11;20.70;;;18.55;;
62673;SDS011;62269;47.594;17.638;2022-10-28T03:18:58;21.95;;;19.58;;
62673;SDS011;62269;47.594;17.638;2022-10-28T03:19:45;22.42;;;20.12;;
62673;SDS011;62269;47.594;17.638;2022-10-28T03:20:32;22.30;;;19.92;;
62673;SDS011;62269;47.594;17.638;2022-10-28T03:21:19;32.90;;;20.75;;
62673;SDS011;62269;47.594;17.638;2022-10-28T03:22:06;23.70;;;21.20;;
62673;SDS011;62269;47.594;17.638;2022-10-28T03:22:52;23.02;;;20.60;;
62673;SDS011;62269;47.594;17.638;2022-10-28T03:23:40;22.85;;;20.50;;
62673;SDS011;62269;47.594;17.638;2022-10-28T03:24:27;23.02;;;20.40;;
62673;SDS011;62269;47.594;17.638;2022-10-28T03:25:13;21.67;;;19.52;;
62673;SDS011;62269;47.594;17.638;2022-10-28T03:26:00;23.42;;;20.62;;
62673;SDS011;62269;47.594;17.638;2022-10-28T03:26:47;23.98;;;21.60;;
62673;SDS011;62269;47.594;17.638;2022-10-28T03:27:34;24.48;;;21.27;;
62673;SDS011;62269;47.594;17.638;2022-10-28T03:28:21;22.62;;;20.23;;
62673;SDS011;62269;47.594;17.638;2022-10-28T03:29:08;22.85;;;20.45;;
62673;SDS011;62269;47.594;17.638;2022-10-28T03:29:54;23.17;;;20.52;;
62673;SDS011;62269;47.594;17.638;2022-10-28T03:30:41;23.05;;;20.52;;
62673;SDS011;62269;47.594;17.638;2022-10-28T03:31:28;23.23;;;20.83;;
62673;SDS011;62269;47.594;17.638;2022-10-28T03:32:15;21.98;;;19.77;;
62673;SDS011;62269;47.594;17.638;2022-10-28T03:33:02;23.70;;;21.37;;
62673;SDS011;62269;47.594;17.638;2022-10-28T03:33:49;23.12;;;20.70;;
62673;SDS011;62269;47.594;17.638;2022-10-28T03:34:35;22.75;;;20.42;;
62673;SDS011;62269;47.594;17.638;2022-10-28T03:35:22;22.70;;;20.37;;
62673;SDS011;62269;47.594;17.638;2022-10-28T03:36:09;23.42;;;21.02;;
62673;SDS011;62269;47.594;17.638;2022-10-28T03:36:56;21.35;;;19.15;;
62673;SDS011;62269;47.594;17.638;2022-10-28T03:37:43;22.83;;;20.40;;
62673;SDS011;62269;47.594;17.638;2022-10-28T03:38:30;21.65;;;19.37;;
62673;SDS011;62269;47.594;17.638;2022-10-28T03:39:16;22.98;;;20.62;;
62673;SDS011;62269;47.594;17.638;2022-10-28T03:40:03;22.10;;;19.87;;
62673;SDS011;62269;47.594;17.638;2022-10-28T03:40:53;23.50;;;20.12;;
62673;SDS011;62269;47.594;17.638;2022-10-28T03:41:40;20.42;;;18.27;;
62673;SDS011;62269;47.594;17.638;2022-10-28T03:42:27;20.75;;;18.55;;
62673;SDS011;62269;47.594;17.638;2022-10-28T03:43:14;21.45;;;19.17;;
62673;SDS011;62269;47.594;17.638;2022-10-28T03:44:01;21.35;;;19.23;;
62673;SDS011;62269;47.594;17.638;2022-10-28T03:44:48;22.13;;;19.80;;
62673;SDS011;62269;47.594;17.638;2022-10-28T03:45:35;21.70;;;19.50;;
62673;SDS011;62269;47.594;17.638;2022-10-28T03:46:22;23.00;;;20.20;;
62673;SDS011;62269;47.594;17.638;2022-10-28T03:47:09;22.87;;;19.12;;
62673;SDS011;62269;47.594;17.638;2022-10-28T03:47:56;21.35;;;19.25;;
62673;SDS011;62269;47.594;17.638;2022-10-28T03:48:42;22.00;;;19.70;;
62673;SDS011;62269;47.594;17.638;2022-10-28T03:49:29;20.20;;;18.20;;
62673;SDS011;62269;47.594;17.638;2022-10-28T03:50:16;21.40;;;19.30;;
62673;SDS011;62269;47.594;17.638;2022-10-28T03:51:03;20.80;;;18.70;;
62673;SDS011;62269;47.594;17.638;2022-10-28T03:51:50;21.95;;;19.65;;
62673;SDS011;62269;47.594;17.638;2022-10-28T03:52:37;20.58;;;18.50;;
62673;SDS011;62269;47.594;17.638;2022-10-28T03:53:24;21.20;;;18.95;;
62673;SDS011;62269;47.594;17.638;2022-10-28T03:54:15;20.52;;;18.37;;
62673;SDS011;62269;47.594;17.638;2022-10-28T03:55:02;20.98;;;18.80;;
62673;SDS011;62269;47.594;17.638;2022-10-28T03:55:56;21.73;;;19.40;;
62673;SDS011;62269;47.594;17.638;2022-10-28T03:56:44;20.08;;;17.90;;
62673;SDS011;62269;47.594;17.638;2022-10-28T03:57:31;21.37;;;19.17;;
62673;SDS011;62269;47.594;17.638;2022-10-28T03:58:18;22.42;;;18.77;;
62673;SDS011;62269;47.594;17.638;2022-10-28T03:59:09;22.73;;;19.12;;
62673;SDS011;62269;47.594;17.638;2022-10-28T03:59:59;23.10;;;19.75;;
62673;SDS011;62269;47.594;17.638;2022-10-28T04:00:46;24.00;;;19.73;;
62673;SDS011;62269;47.594;17.638;2022-10-28T04:01:35;22.08;;;19.60;;
62673;SDS011;62269;47.594;17.638;2022-10-28T04:02:22;21.45;;;19.15;;
62673;SDS011;62269;47.594;17.638;2022-10-28T04:03:09;36.00;;;19.92;;
62673;SDS011;62269;47.594;17.638;2022-10-28T04:03:55;22.80;;;20.42;;
62673;SDS011;62269;47.594;17.638;2022-10-28T04:04:42;23.50;;;20.27;;
62673;SDS011;62269;47.594;17.638;2022-10-28T04:05:29;22.60;;;19.67;;
62673;SDS011;62269;47.594;17.638;2022-10-28T04:06:16;22.10;;;19.37;;
62673;SDS011;62269;47.594;17.638;2022-10-28T04:07:03;21.05;;;18.92;;
62673;SDS011;62269;47.594;17.638;2022-10-28T04:07:49;21.12;;;18.85;;
62673;SDS011;62269;47.594;17.638;2022-10-28T04:08:38;20.95;;;18.85;;
62673;SDS011;62269;47.594;17.638;2022-10-28T04:09:25;20.20;;;18.00;;
62673;SDS011;62269;47.594;17.638;2022-10-28T04:10:12;21.73;;;19.42;;
62673;SDS011;62269;47.594;17.638;2022-10-28T04:10:59;20.95;;;18.87;;
62673;SDS011;62269;47.594;17.638;2022-10-28T04:11:48;20.40;;;18.23;;
62673;SDS011;62269;47.594;17.638;2022-10-28T04:12:35;20.83;;;17.65;;
62673;SDS011;62269;47.594;17.638;2022-10-28T04:13:22;19.37;;;17.45;;
62673;SDS011;62269;47.594;17.638;2022-10-28T04:14:09;21.20;;;19.00;;
62673;SDS011;62269;47.594;17.638;2022-10-28T04:14:56;20.90;;;18.67;;
62673;SDS011;62269;47.594;17.638;2022-10-28T04:15:43;20.23;;;18.12;;
62673;SDS011;62269;47.594;17.638;2022-10-28T04:16:29;20.20;;;18.10;;
62673;SDS011;62269;47.594;17.638;2022-10-28T04:17:16;20.88;;;18.77;;
62673;SDS011;62269;47.594;17.638;2022-10-28T04:18:03;21.25;;;19.10;;
62673;SDS011;62269;47.594;17.638;2022-10-28T04:18:50;20.50;;;18.40;;
62673;SDS011;62269;47.594;17.638;2022-10-28T04:19:37;18.83;;;16.85;;
62673;SDS011;62269;47.594;17.638;2022-10-28T04:20:24;18.87;;;16.80;;
62673;SDS011;62269;47.594;17.638;2022-10-28T04:21:11;20.83;;;18.70;;
62673;SDS011;62269;47.594;17.638;2022-10-28T04:21:58;21.08;;;18.12;;
62673;SDS011;62269;47.594;17.638;2022-10-28T04:22:45;20.80;;;18.35;;
62673;SDS011;62269;47.594;17.638;2022-10-28T04:23:32;20.60;;;18.40;;
62673;SDS011;62269;47.594;17.638;2022-10-28T04:24:19;20.02;;;17.80;;
62673;SDS011;62269;47.594;17.638;2022-10-28T04:25:05;19.30;;;17.30;;
62673;SDS011;62269;47.594;17.638;2022-10-28T04:25:53;20.17;;;18.15;;
62673;SDS011;62269;47.594;17.638;2022-10-28T04:26:40;20.17;;;18.02;;
62673;SDS011;62269;47.594;17.638;2022-10-28T04:27:26;19.70;;;17.33;;
62673;SDS011;62269;47.594;17.638;2022-10-28T04:28:13;19.60;;;17.67;;
62673;SDS011;62269;47.594;17.638;2022-10-28T04:29:00;20.05;;;17.42;;
62673;SDS011;62269;47.594;17.638;2022-10-28T04:29:47;19.70;;;16.67;;
62673;SDS011;62269;47.594;17.638;2022-10-28T04:30:34;19.37;;;17.48;;
62673;SDS011;62269;47.594;17.638;2022-10-28T04:31:21;19.58;;;17.58;;
62673;SDS011;62269;47.594;17.638;2022-10-28T04:32:07;19.92;;;17.27;;
62673;SDS011;62269;47.594;17.638;2022-10-28T04:32:55;19.12;;;17.12;;
62673;SDS011;62269;47.594;17.638;2022-10-28T04:33:42;22.92;;;17.85;;
62673;SDS011;62269;47.594;17.638;2022-10-28T04:34:29;20.10;;;18.05;;
62673;SDS011;62269;47.594;17.638;2022-10-28T04:35:15;18.83;;;16.95;;
62673;SDS011;62269;47.594;17.638;2022-10-28T04:36:02;19.23;;;17.23;;
62673;SDS011;62269;47.594;17.638;2022-10-28T04:36:49;20.05;;;18.05;;
62673;SDS011;62269;47.594;17.638;2022-10-28T04:37:36;20.37;;;18.27;;
62673;SDS011;62269;47.594;17.638;2022-10-28T04:38:23;20.00;;;17.92;;
62673;SDS011;62269;47.594;17.638;2022-10-28T04:39:15;21.05;;;17.50;;
62673;SDS011;62269;47.594;17.638;2022-10-28T04:40:02;19.20;;;17.30;;
62673;SDS011;62269;47.594;17.638;2022-10-28T04:40:50;20.88;;;18.37;;
62673;SDS011;62269;47.594;17.638;2022-10-28T04:41:37;20.20;;;17.67;;
62673;SDS011;62269;47.594;17.638;2022-10-28T04:42:23;19.92;;;17.95;;
62673;SDS011;62269;47.594;17.638;2022-10-28T04:43:10;19.90;;;17.90;;
62673;SDS011;62269;47.594;17.638;2022-10-28T04:43:57;20.50;;;17.70;;
62673;SDS011;62269;47.594;17.638;2022-10-28T04:44:44;19.48;;;17.48;;
62673;SDS011;62269;47.594;17.638;2022-10-28T04:45:31;18.92;;;16.92;;
62673;SDS011;62269;47.594;17.638;2022-10-28T04:46:18;20.30;;;17.70;;
62673;SDS011;62269;47.594;17.638;2022-10-28T04:47:05;19.85;;;17.85;;
62673;SDS011;62269;47.594;17.638;2022-10-28T04:47:55;21.33;;;19.10;;
62673;SDS011;62269;47.594;17.638;2022-10-28T04:48:45;20.27;;;17.75;;
62673;SDS011;62269;47.594;17.638;2022-10-28T04:49:32;21.08;;;18.30;;
62673;SDS011;62269;47.594;17.638;2022-10-28T04:50:24;21.15;;;18.65;;
62673;SDS011;62269;47.594;17.638;2022-10-28T04:51:10;21.92;;;17.95;;
62673;SDS011;62269;47.594;17.638;2022-10-28T04:51:57;20.45;;;18.35;;
62673;SDS011;62269;47.594;17.638;2022-10-28T04:52:44;20.45;;;18.35;;
62673;SDS011;62269;47.594;17.638;2022-10-28T04:53:31;19.62;;;17.08;;
62673;SDS011;62269;47.594;17.638;2022-10-28T04:54:18;18.50;;;16.55;;
62673;SDS011;62269;47.594;17.638;2022-10-28T04:55:04;19.52;;;17.48;;
62673;SDS011;62269;47.594;17.638;2022-10-28T04:55:55;20.98;;;17.95;;
62673;SDS011;62269;47.594;17.638;2022-10-28T04:56:45;19.90;;;17.87;;
62673;SDS011;62269;47.594;17.638;2022-10-28T04:57:32;20.67;;;17.45;;
62673;SDS011;62269;47.594;17.638;2022-10-28T04:58:19;18.35;;;16.55;;
62673;SDS011;62269;47.594;17.638;2022-10-28T04:59:06;19.70;;;17.62;;
62673;SDS011;62269;47.594;17.638;2022-10-28T04:59:53;19.48;;;17.52;;
62673;SDS011;62269;47.594;17.638;2022-10-28T05:00:40;19.83;;;17.83;;
62673;SDS011;62269;47.594;17.638;2022-10-28T05:01:26;20.80;;;18.67;;
62673;SDS011;62269;47.594;17.638;2022-10-28T05:02:14;19.35;;;17.35;;
62673;SDS011;62269;47.594;17.638;2022-10-28T05:03:01;19.48;;;17.30;;
62673;SDS011;62269;47.594;17.638;2022-10-28T05:03:48;19.48;;;17.37;;
62673;SDS011;62269;47.594;17.638;2022-10-28T05:04:35;20.17;;;18.08;;
62673;SDS011;62269;47.594;17.638;2022-10-28T05:05:21;19.30;;;17.30;;
62673;SDS011;62269;47.594;17.638;2022-10-28T05:06:08;19.23;;;17.10;;
62673;SDS011;62269;47.594;17.638;2022-10-28T05:06:55;18.70;;;16.62;;
62673;SDS011;62269;47.594;17.638;2022-10-28T05:07:42;19.33;;;17.33;;
62673;SDS011;62269;47.594;17.638;2022-10-28T05:08:29;19.55;;;16.95;;
62673;SDS011;62269;47.594;17.638;2022-10-28T05:09:16;20.00;;;17.87;;
62673;SDS011;62269;47.594;17.638;2022-10-28T05:10:03;19.05;;;17.15;;
62673;SDS011;62269;47.594;17.638;2022-10-28T05:10:50;19.20;;;17.10;;
62673;SDS011;62269;47.594;17.638;2022-10-28T05:11:37;19.90;;;17.58;;
62673;SDS011;62269;47.594;17.638;2022-10-28T05:12:24;19.20;;;17.05;;
62673;SDS011;62269;47.594;17.638;2022-10-28T05:13:11;19.02;;;16.73;;
62673;SDS011;62269;47.594;17.638;2022-10-28T05:13:58;18.42;;;16.50;;
62673;SDS011;62269;47.594;17.638;2022-10-28T05:14:44;19.80;;;17.73;;
62673;SDS011;62269;47.594;17.638;2022-10-28T05:15:35;19.52;;;17.40;;
62673;SDS011;62269;47.594;17.638;2022-10-28T05:16:22;19.23;;;16.73;;
62673;SDS011;62269;47.594;17.638;2022-10-28T05:17:09;20.30;;;17.17;;
62673;SDS011;62269;47.594;17.638;2022-10-28T05:17:56;19.87;;;17.80;;
62673;SDS011;62269;47.594;17.638;2022-10-28T05:18:43;19.23;;;17.17;;
62673;SDS011;62269;47.594;17.638;2022-10-28T05:19:34;20.35;;;18.35;;
62673;SDS011;62269;47.594;17.638;2022-10-28T05:20:21;19.50;;;17.50;;
62673;SDS011;62269;47.594;17.638;2022-10-28T05:21:08;18.58;;;16.60;;
62673;SDS011;62269;47.594;17.638;2022-10-28T05:21:55;17.58;;;15.80;;
62673;SDS011;62269;47.594;17.638;2022-10-28T05:22:46;18.58;;;16.70;;